sensor_id;sensor_type;location;lat;lon;timestamp;P1;durP1;ratioP1;P2;durP2;ratioP2
9934;SDS011;5006;41.828;23.478;2022-09-11T00:00:46;3.78;;;1.92;;
9934;SDS011;5006;41.828;23.478;2022-09-11T00:01:51;3.60;;;1.80;;
9934;SDS011;5006;41.828;23.478;2022-09-11T00:02:58;2.95;;;2.00;;
9934;SDS011;5006;41.828;23.478;2022-09-11T00:04:03;6.05;;;2.40;;
9934;SDS011;5006;41.828;23.478;2022-09-11T00:05:09;4.75;;;1.90;;
9934;SDS011;5006;41.828;23.478;2022-09-11T00:06:15;4.35;;;2.33;;
9934;SDS011;5006;41.828;23.478;2022-09-11T00:07:23;4.35;;;1.70;;
9934;SDS011;5006;41.828;23.478;2022-09-11T00:08:29;5.95;;;2.53;;
9934;SDS011;5006;41.828;23.478;2022-09-11T00:09:35;4.05;;;2.10;;
9934;SDS011;5006;41.828;23.478;2022-09-11T00:10:41;5.97;;;2.03;;
9934;SDS011;5006;41.828;23.478;2022-09-11T00:11:48;3.72;;;2.17;;
9934;SDS011;5006;41.828;23.478;2022-09-11T00:12:53;4.32;;;1.95;;
9934;SDS011;5006;41.828;23.478;2022-09-11T00:13:59;5.97;;;1.85;;
9934;SDS011;5006;41.828;23.478;2022-09-11T00:15:06;6.03;;;2.03;;
9934;SDS011;5006;41.828;23.478;2022-09-11T00:16:16;7.20;;;2.25;;
9934;SDS011;5006;41.828;23.478;2022-09-11T00:17:23;3.95;;;2.20;;
9934;SDS011;5006;41.828;23.478;2022-09-11T00:18:30;6.15;;;2.15;;
9934;SDS011;5006;41.828;23.478;2022-09-11T00:19:38;6.70;;;2.28;;
9934;SDS011;5006;41.828;23.478;2022-09-11T00:20:46;3.90;;;2.10;;
9934;SDS011;5006;41.828;23.478;2022-09-11T00:21:52;6.78;;;2.00;;
9934;SDS011;5006;41.828;23.478;2022-09-11T00:22:59;4.60;;;2.00;;
9934;SDS011;5006;41.828;23.478;2022-09-11T00:24:08;4.70;;;2.20;;
9934;SDS011;5006;41.828;23.478;2022-09-11T00:25:14;4.95;;;2.30;;
9934;SDS011;5006;41.828;23.478;2022-09-11T00:26:19;4.25;;;2.10;;
9934;SDS011;5006;41.828;23.478;2022-09-11T00:27:26;5.60;;;2.22;;
9934;SDS011;5006;41.828;23.478;2022-09-11T00:28:31;5.15;;;2.25;;
9934;SDS011;5006;41.828;23.478;2022-09-11T00:29:37;4.13;;;1.92;;
9934;SDS011;5006;41.828;23.478;2022-09-11T00:30:43;5.32;;;2.10;;
9934;SDS011;5006;41.828;23.478;2022-09-11T00:31:48;5.90;;;2.13;;
9934;SDS011;5006;41.828;23.478;2022-09-11T00:32:53;3.17;;;1.98;;
9934;SDS011;5006;41.828;23.478;2022-09-11T00:34:01;3.47;;;2.00;;
9934;SDS011;5006;41.828;23.478;2022-09-11T00:35:06;3.33;;;1.98;;
9934;SDS011;5006;41.828;23.478;2022-09-11T00:36:14;2.65;;;1.73;;
9934;SDS011;5006;41.828;23.478;2022-09-11T00:37:21;3.88;;;1.77;;
9934;SDS011;5006;41.828;23.478;2022-09-11T00:38:27;7.85;;;2.00;;
9934;SDS011;5006;41.828;23.478;2022-09-11T00:39:33;7.97;;;2.42;;
9934;SDS011;5006;41.828;23.478;2022-09-11T00:40:42;5.93;;;2.10;;
9934;SDS011;5006;41.828;23.478;2022-09-11T00:41:48;6.05;;;2.00;;
9934;SDS011;5006;41.828;23.478;2022-09-11T00:42:54;3.55;;;1.90;;
9934;SDS011;5006;41.828;23.478;2022-09-11T00:44:01;4.60;;;2.17;;
9934;SDS011;5006;41.828;23.478;2022-09-11T00:45:16;4.68;;;1.90;;
9934;SDS011;5006;41.828;23.478;2022-09-11T00:46:28;6.93;;;1.75;;
9934;SDS011;5006;41.828;23.478;2022-09-11T00:47:38;5.30;;;1.88;;
9934;SDS011;5006;41.828;23.478;2022-09-11T00:48:44;3.55;;;2.13;;
9934;SDS011;5006;41.828;23.478;2022-09-11T00:49:55;9.85;;;2.22;;
9934;SDS011;5006;41.828;23.478;2022-09-11T00:51:06;7.38;;;2.15;;
9934;SDS011;5006;41.828;23.478;2022-09-11T00:52:14;3.03;;;1.90;;
9934;SDS011;5006;41.828;23.478;2022-09-11T00:53:22;3.63;;;1.90;;
9934;SDS011;5006;41.828;23.478;2022-09-11T00:54:34;5.65;;;1.90;;
9934;SDS011;5006;41.828;23.478;2022-09-11T00:55:45;3.45;;;1.80;;
9934;SDS011;5006;41.828;23.478;2022-09-11T00:56:55;5.93;;;1.92;;
9934;SDS011;5006;41.828;23.478;2022-09-11T00:58:02;3.92;;;2.08;;
9934;SDS011;5006;41.828;23.478;2022-09-11T00:59:11;10.35;;;2.33;;
9934;SDS011;5006;41.828;23.478;2022-09-11T01:00:16;5.57;;;1.80;;
9934;SDS011;5006;41.828;23.478;2022-09-11T01:01:22;3.45;;;1.83;;
9934;SDS011;5006;41.828;23.478;2022-09-11T01:02:27;3.97;;;1.83;;
9934;SDS011;5006;41.828;23.478;2022-09-11T01:03:35;5.43;;;2.15;;
9934;SDS011;5006;41.828;23.478;2022-09-11T01:04:40;2.47;;;1.75;;
9934;SDS011;5006;41.828;23.478;2022-09-11T01:05:47;4.72;;;2.25;;
9934;SDS011;5006;41.828;23.478;2022-09-11T01:06:53;10.35;;;2.20;;
9934;SDS011;5006;41.828;23.478;2022-09-11T01:08:02;5.93;;;2.25;;
9934;SDS011;5006;41.828;23.478;2022-09-11T01:09:07;6.22;;;1.85;;
9934;SDS011;5006;41.828;23.478;2022-09-11T01:10:13;7.13;;;2.10;;
9934;SDS011;5006;41.828;23.478;2022-09-11T01:11:25;4.10;;;1.70;;
9934;SDS011;5006;41.828;23.478;2022-09-11T01:12:46;4.65;;;1.80;;
9934;SDS011;5006;41.828;23.478;2022-09-11T01:14:00;4.15;;;2.08;;
9934;SDS011;5006;41.828;23.478;2022-09-11T01:15:22;4.43;;;1.85;;
9934;SDS011;5006;41.828;23.478;2022-09-11T01:16:33;2.38;;;1.77;;
9934;SDS011;5006;41.828;23.478;2022-09-11T01:17:46;3.58;;;2.00;;
9934;SDS011;5006;41.828;23.478;2022-09-11T01:19:04;5.88;;;2.08;;
9934;SDS011;5006;41.828;23.478;2022-09-11T01:20:22;4.82;;;1.80;;
9934;SDS011;5006;41.828;23.478;2022-09-11T01:21:44;2.42;;;1.90;;
9934;SDS011;5006;41.828;23.478;2022-09-11T01:23:03;4.03;;;1.90;;
9934;SDS011;5006;41.828;23.478;2022-09-11T01:24:24;4.68;;;1.85;;
9934;SDS011;5006;41.828;23.478;2022-09-11T01:25:50;2.70;;;1.92;;
9934;SDS011;5006;41.828;23.478;2022-09-11T01:27:24;4.95;;;1.80;;
9934;SDS011;5006;41.828;23.478;2022-09-11T01:28:47;4.70;;;1.90;;
9934;SDS011;5006;41.828;23.478;2022-09-11T01:29:56;3.33;;;1.83;;
9934;SDS011;5006;41.828;23.478;2022-09-11T01:31:07;6.65;;;2.00;;
9934;SDS011;5006;41.828;23.478;2022-09-11T01:32:17;3.08;;;1.70;;
9934;SDS011;5006;41.828;23.478;2022-09-11T01:33:25;3.28;;;1.80;;
9934;SDS011;5006;41.828;23.478;2022-09-11T01:34:35;8.55;;;1.90;;
9934;SDS011;5006;41.828;23.478;2022-09-11T01:35:50;3.35;;;1.60;;
9934;SDS011;5006;41.828;23.478;2022-09-11T01:37:01;5.18;;;1.80;;
9934;SDS011;5006;41.828;23.478;2022-09-11T01:38:11;4.32;;;1.73;;
9934;SDS011;5006;41.828;23.478;2022-09-11T01:39:21;4.50;;;1.90;;
9934;SDS011;5006;41.828;23.478;2022-09-11T01:40:34;2.50;;;1.70;;
9934;SDS011;5006;41.828;23.478;2022-09-11T01:41:46;2.58;;;1.60;;
9934;SDS011;5006;41.828;23.478;2022-09-11T01:42:58;3.63;;;1.65;;
9934;SDS011;5006;41.828;23.478;2022-09-11T01:44:10;5.07;;;1.98;;
9934;SDS011;5006;41.828;23.478;2022-09-11T01:45:20;3.83;;;1.88;;
9934;SDS011;5006;41.828;23.478;2022-09-11T01:46:28;4.78;;;1.70;;
9934;SDS011;5006;41.828;23.478;2022-09-11T01:47:38;6.47;;;1.73;;
9934;SDS011;5006;41.828;23.478;2022-09-11T01:48:49;6.82;;;2.03;;
9934;SDS011;5006;41.828;23.478;2022-09-11T01:50:02;3.17;;;1.65;;
9934;SDS011;5006;41.828;23.478;2022-09-11T01:51:12;4.07;;;1.95;;
9934;SDS011;5006;41.828;23.478;2022-09-11T01:52:38;4.38;;;2.00;;
9934;SDS011;5006;41.828;23.478;2022-09-11T01:53:48;5.13;;;1.67;;
9934;SDS011;5006;41.828;23.478;2022-09-11T01:54:59;5.72;;;2.00;;
9934;SDS011;5006;41.828;23.478;2022-09-11T01:56:08;4.40;;;2.30;;
9934;SDS011;5006;41.828;23.478;2022-09-11T01:57:20;3.92;;;1.67;;
9934;SDS011;5006;41.828;23.478;2022-09-11T01:58:33;4.57;;;2.13;;
9934;SDS011;5006;41.828;23.478;2022-09-11T01:59:41;4.75;;;1.58;;
9934;SDS011;5006;41.828;23.478;2022-09-11T02:00:51;5.45;;;1.98;;
9934;SDS011;5006;41.828;23.478;2022-09-11T02:02:04;3.25;;;1.90;;
9934;SDS011;5006;41.828;23.478;2022-09-11T02:03:12;4.47;;;1.75;;
9934;SDS011;5006;41.828;23.478;2022-09-11T02:04:22;3.92;;;1.63;;
9934;SDS011;5006;41.828;23.478;2022-09-11T02:05:34;3.53;;;1.70;;
9934;SDS011;5006;41.828;23.478;2022-09-11T02:06:48;5.18;;;1.88;;
9934;SDS011;5006;41.828;23.478;2022-09-11T02:08:06;3.45;;;1.67;;
9934;SDS011;5006;41.828;23.478;2022-09-11T02:09:18;4.35;;;1.52;;
9934;SDS011;5006;41.828;23.478;2022-09-11T02:10:28;6.15;;;1.80;;
9934;SDS011;5006;41.828;23.478;2022-09-11T02:11:39;5.90;;;1.65;;
9934;SDS011;5006;41.828;23.478;2022-09-11T02:12:49;5.05;;;1.90;;
9934;SDS011;5006;41.828;23.478;2022-09-11T02:14:03;5.10;;;1.65;;
9934;SDS011;5006;41.828;23.478;2022-09-11T02:15:13;6.95;;;1.70;;
9934;SDS011;5006;41.828;23.478;2022-09-11T02:16:24;4.38;;;1.70;;
9934;SDS011;5006;41.828;23.478;2022-09-11T02:17:41;4.10;;;1.50;;
9934;SDS011;5006;41.828;23.478;2022-09-11T02:18:55;4.70;;;1.60;;
9934;SDS011;5006;41.828;23.478;2022-09-11T02:20:03;3.90;;;1.67;;
9934;SDS011;5006;41.828;23.478;2022-09-11T02:21:08;5.50;;;1.60;;
9934;SDS011;5006;41.828;23.478;2022-09-11T02:22:15;4.25;;;1.42;;
9934;SDS011;5006;41.828;23.478;2022-09-11T02:23:20;5.85;;;1.77;;
9934;SDS011;5006;41.828;23.478;2022-09-11T02:24:30;3.75;;;1.67;;
9934;SDS011;5006;41.828;23.478;2022-09-11T02:25:35;3.63;;;1.60;;
9934;SDS011;5006;41.828;23.478;2022-09-11T02:26:43;3.47;;;1.75;;
9934;SDS011;5006;41.828;23.478;2022-09-11T02:27:51;4.03;;;1.58;;
9934;SDS011;5006;41.828;23.478;2022-09-11T02:28:58;3.28;;;1.55;;
9934;SDS011;5006;41.828;23.478;2022-09-11T02:30:05;3.97;;;1.48;;
9934;SDS011;5006;41.828;23.478;2022-09-11T02:31:12;4.38;;;1.90;;
9934;SDS011;5006;41.828;23.478;2022-09-11T02:32:17;4.68;;;1.65;;
9934;SDS011;5006;41.828;23.478;2022-09-11T02:33:28;3.97;;;1.60;;
9934;SDS011;5006;41.828;23.478;2022-09-11T02:34:34;4.78;;;1.50;;
9934;SDS011;5006;41.828;23.478;2022-09-11T02:35:44;4.78;;;1.70;;
9934;SDS011;5006;41.828;23.478;2022-09-11T02:37:00;6.63;;;1.73;;
9934;SDS011;5006;41.828;23.478;2022-09-11T02:38:18;3.67;;;1.80;;
9934;SDS011;5006;41.828;23.478;2022-09-11T02:39:35;3.22;;;1.63;;
9934;SDS011;5006;41.828;23.478;2022-09-11T02:41:04;3.75;;;2.03;;
9934;SDS011;5006;41.828;23.478;2022-09-11T02:42:22;3.40;;;1.30;;
9934;SDS011;5006;41.828;23.478;2022-09-11T02:43:40;4.82;;;1.60;;
9934;SDS011;5006;41.828;23.478;2022-09-11T02:44:56;3.88;;;1.50;;
9934;SDS011;5006;41.828;23.478;2022-09-11T02:46:24;6.13;;;1.60;;
9934;SDS011;5006;41.828;23.478;2022-09-11T02:47:43;3.45;;;1.50;;
9934;SDS011;5006;41.828;23.478;2022-09-11T02:49:00;4.05;;;1.67;;
9934;SDS011;5006;41.828;23.478;2022-09-11T02:50:13;4.97;;;1.60;;
9934;SDS011;5006;41.828;23.478;2022-09-11T02:51:28;2.95;;;1.58;;
9934;SDS011;5006;41.828;23.478;2022-09-11T02:52:41;3.83;;;1.38;;
9934;SDS011;5006;41.828;23.478;2022-09-11T02:53:56;2.45;;;1.27;;
9934;SDS011;5006;41.828;23.478;2022-09-11T02:55:09;3.78;;;1.50;;
9934;SDS011;5006;41.828;23.478;2022-09-11T02:56:22;3.33;;;1.38;;
9934;SDS011;5006;41.828;23.478;2022-09-11T02:57:34;4.35;;;1.33;;
9934;SDS011;5006;41.828;23.478;2022-09-11T02:58:46;4.60;;;1.50;;
9934;SDS011;5006;41.828;23.478;2022-09-11T02:59:54;2.85;;;1.27;;
9934;SDS011;5006;41.828;23.478;2022-09-11T03:01:03;5.25;;;1.50;;
9934;SDS011;5006;41.828;23.478;2022-09-11T03:02:12;4.35;;;1.40;;
9934;SDS011;5006;41.828;23.478;2022-09-11T03:03:20;5.43;;;1.40;;
9934;SDS011;5006;41.828;23.478;2022-09-11T03:04:24;3.95;;;1.58;;
9934;SDS011;5006;41.828;23.478;2022-09-11T03:05:31;4.00;;;1.25;;
9934;SDS011;5006;41.828;23.478;2022-09-11T03:06:36;3.97;;;1.50;;
9934;SDS011;5006;41.828;23.478;2022-09-11T03:07:44;3.53;;;1.67;;
9934;SDS011;5006;41.828;23.478;2022-09-11T03:08:49;1.73;;;1.20;;
9934;SDS011;5006;41.828;23.478;2022-09-11T03:09:55;5.20;;;1.60;;
9934;SDS011;5006;41.828;23.478;2022-09-11T03:11:01;4.05;;;1.38;;
9934;SDS011;5006;41.828;23.478;2022-09-11T03:12:08;2.53;;;1.20;;
9934;SDS011;5006;41.828;23.478;2022-09-11T03:13:14;2.58;;;1.40;;
9934;SDS011;5006;41.828;23.478;2022-09-11T03:14:22;5.30;;;1.30;;
9934;SDS011;5006;41.828;23.478;2022-09-11T03:15:27;3.55;;;1.30;;
9934;SDS011;5006;41.828;23.478;2022-09-11T03:16:33;6.28;;;1.30;;
9934;SDS011;5006;41.828;23.478;2022-09-11T03:17:40;2.72;;;1.42;;
9934;SDS011;5006;41.828;23.478;2022-09-11T03:18:46;4.03;;;1.40;;
9934;SDS011;5006;41.828;23.478;2022-09-11T03:19:51;3.85;;;1.27;;
9934;SDS011;5006;41.828;23.478;2022-09-11T03:20:57;5.63;;;1.40;;
9934;SDS011;5006;41.828;23.478;2022-09-11T03:22:03;5.35;;;1.30;;
9934;SDS011;5006;41.828;23.478;2022-09-11T03:23:09;4.05;;;1.40;;
9934;SDS011;5006;41.828;23.478;2022-09-11T03:24:14;3.88;;;1.35;;
9934;SDS011;5006;41.828;23.478;2022-09-11T03:25:21;2.92;;;1.30;;
9934;SDS011;5006;41.828;23.478;2022-09-11T03:26:30;3.75;;;1.35;;
9934;SDS011;5006;41.828;23.478;2022-09-11T03:27:37;5.75;;;1.70;;
9934;SDS011;5006;41.828;23.478;2022-09-11T03:28:45;2.80;;;1.48;;
9934;SDS011;5006;41.828;23.478;2022-09-11T03:29:52;4.30;;;1.85;;
9934;SDS011;5006;41.828;23.478;2022-09-11T03:30:57;6.10;;;2.33;;
9934;SDS011;5006;41.828;23.478;2022-09-11T03:32:04;5.35;;;2.80;;
9934;SDS011;5006;41.828;23.478;2022-09-11T03:33:10;5.03;;;2.50;;
9934;SDS011;5006;41.828;23.478;2022-09-11T03:34:16;3.80;;;1.80;;
9934;SDS011;5006;41.828;23.478;2022-09-11T03:35:21;4.57;;;2.40;;
9934;SDS011;5006;41.828;23.478;2022-09-11T03:36:27;5.03;;;2.22;;
9934;SDS011;5006;41.828;23.478;2022-09-11T03:37:33;5.63;;;2.40;;
9934;SDS011;5006;41.828;23.478;2022-09-11T03:38:38;6.03;;;2.60;;
9934;SDS011;5006;41.828;23.478;2022-09-11T03:39:44;4.07;;;2.40;;
9934;SDS011;5006;41.828;23.478;2022-09-11T03:40:49;2.85;;;2.15;;
9934;SDS011;5006;41.828;23.478;2022-09-11T03:41:54;3.28;;;2.58;;
9934;SDS011;5006;41.828;23.478;2022-09-11T03:43:00;5.10;;;2.40;;
9934;SDS011;5006;41.828;23.478;2022-09-11T03:44:06;4.40;;;1.52;;
9934;SDS011;5006;41.828;23.478;2022-09-11T03:45:11;3.60;;;1.40;;
9934;SDS011;5006;41.828;23.478;2022-09-11T03:46:18;3.83;;;1.42;;
9934;SDS011;5006;41.828;23.478;2022-09-11T03:47:24;3.65;;;1.38;;
9934;SDS011;5006;41.828;23.478;2022-09-11T03:48:32;3.92;;;1.25;;
9934;SDS011;5006;41.828;23.478;2022-09-11T03:49:39;4.28;;;1.30;;
9934;SDS011;5006;41.828;23.478;2022-09-11T03:50:44;2.08;;;1.17;;
9934;SDS011;5006;41.828;23.478;2022-09-11T03:51:51;4.65;;;1.17;;
9934;SDS011;5006;41.828;23.478;2022-09-11T03:52:57;3.10;;;1.20;;
9934;SDS011;5006;41.828;23.478;2022-09-11T03:54:03;4.55;;;1.25;;
9934;SDS011;5006;41.828;23.478;2022-09-11T03:55:09;2.83;;;1.40;;
9934;SDS011;5006;41.828;23.478;2022-09-11T03:56:14;4.57;;;1.30;;
9934;SDS011;5006;41.828;23.478;2022-09-11T03:57:24;5.85;;;1.70;;
9934;SDS011;5006;41.828;23.478;2022-09-11T03:58:30;4.68;;;1.45;;
9934;SDS011;5006;41.828;23.478;2022-09-11T03:59:36;4.88;;;1.48;;
9934;SDS011;5006;41.828;23.478;2022-09-11T04:00:42;3.83;;;1.35;;
9934;SDS011;5006;41.828;23.478;2022-09-11T04:01:49;2.45;;;1.25;;
9934;SDS011;5006;41.828;23.478;2022-09-11T04:02:55;4.30;;;1.25;;
9934;SDS011;5006;41.828;23.478;2022-09-11T04:04:13;4.25;;;1.77;;
9934;SDS011;5006;41.828;23.478;2022-09-11T04:05:20;3.47;;;1.60;;
9934;SDS011;5006;41.828;23.478;2022-09-11T04:06:27;5.40;;;1.45;;
9934;SDS011;5006;41.828;23.478;2022-09-11T04:07:32;7.05;;;1.70;;
9934;SDS011;5006;41.828;23.478;2022-09-11T04:08:38;6.55;;;1.60;;
9934;SDS011;5006;41.828;23.478;2022-09-11T04:09:46;2.58;;;1.35;;
9934;SDS011;5006;41.828;23.478;2022-09-11T04:10:55;2.88;;;1.40;;
9934;SDS011;5006;41.828;23.478;2022-09-11T04:12:00;2.67;;;1.33;;
9934;SDS011;5006;41.828;23.478;2022-09-11T04:13:06;3.10;;;1.50;;
9934;SDS011;5006;41.828;23.478;2022-09-11T04:14:11;3.97;;;1.50;;
9934;SDS011;5006;41.828;23.478;2022-09-11T04:15:18;3.25;;;1.50;;
9934;SDS011;5006;41.828;23.478;2022-09-11T04:16:23;3.25;;;1.70;;
9934;SDS011;5006;41.828;23.478;2022-09-11T04:17:31;4.43;;;1.30;;
9934;SDS011;5006;41.828;23.478;2022-09-11T04:18:36;6.30;;;1.42;;
9934;SDS011;5006;41.828;23.478;2022-09-11T04:19:45;7.35;;;1.40;;
9934;SDS011;5006;41.828;23.478;2022-09-11T04:20:51;4.25;;;1.95;;
9934;SDS011;5006;41.828;23.478;2022-09-11T04:21:56;3.95;;;2.50;;
9934;SDS011;5006;41.828;23.478;2022-09-11T04:23:02;5.47;;;1.85;;
9934;SDS011;5006;41.828;23.478;2022-09-11T04:24:08;5.82;;;1.73;;
9934;SDS011;5006;41.828;23.478;2022-09-11T04:25:14;2.90;;;1.70;;
9934;SDS011;5006;41.828;23.478;2022-09-11T04:26:19;4.20;;;1.70;;
9934;SDS011;5006;41.828;23.478;2022-09-11T04:27:30;3.40;;;1.88;;
9934;SDS011;5006;41.828;23.478;2022-09-11T04:28:35;5.32;;;1.67;;
9934;SDS011;5006;41.828;23.478;2022-09-11T04:29:41;4.68;;;2.00;;
9934;SDS011;5006;41.828;23.478;2022-09-11T04:30:48;5.00;;;1.83;;
9934;SDS011;5006;41.828;23.478;2022-09-11T04:31:55;3.38;;;1.70;;
9934;SDS011;5006;41.828;23.478;2022-09-11T04:33:04;7.75;;;1.80;;
9934;SDS011;5006;41.828;23.478;2022-09-11T04:34:09;5.28;;;1.42;;
9934;SDS011;5006;41.828;23.478;2022-09-11T04:35:16;3.47;;;1.40;;
9934;SDS011;5006;41.828;23.478;2022-09-11T04:36:29;4.18;;;1.55;;
9934;SDS011;5006;41.828;23.478;2022-09-11T04:37:34;2.53;;;1.40;;
9934;SDS011;5006;41.828;23.478;2022-09-11T04:38:40;2.70;;;1.60;;
9934;SDS011;5006;41.828;23.478;2022-09-11T04:39:47;3.40;;;1.48;;
9934;SDS011;5006;41.828;23.478;2022-09-11T04:40:53;2.92;;;1.52;;
9934;SDS011;5006;41.828;23.478;2022-09-11T04:41:58;6.70;;;1.92;;
9934;SDS011;5006;41.828;23.478;2022-09-11T04:43:05;3.53;;;2.00;;
9934;SDS011;5006;41.828;23.478;2022-09-11T04:44:11;3.38;;;1.60;;
9934;SDS011;5006;41.828;23.478;2022-09-11T04:45:20;3.30;;;1.55;;
9934;SDS011;5006;41.828;23.478;2022-09-11T04:46:24;3.45;;;1.55;;
9934;SDS011;5006;41.828;23.478;2022-09-11T04:47:30;2.75;;;1.42;;
9934;SDS011;5006;41.828;23.478;2022-09-11T04:48:35;5.90;;;1.33;;
9934;SDS011;5006;41.828;23.478;2022-09-11T04:49:42;2.55;;;1.67;;
9934;SDS011;5006;41.828;23.478;2022-09-11T04:50:58;6.32;;;2.80;;
9934;SDS011;5006;41.828;23.478;2022-09-11T04:52:04;6.13;;;2.50;;
9934;SDS011;5006;41.828;23.478;2022-09-11T04:53:11;5.10;;;2.50;;
9934;SDS011;5006;41.828;23.478;2022-09-11T04:54:18;5.90;;;3.45;;
9934;SDS011;5006;41.828;23.478;2022-09-11T04:55:25;4.82;;;3.80;;
9934;SDS011;5006;41.828;23.478;2022-09-11T04:56:30;6.18;;;3.63;;
9934;SDS011;5006;41.828;23.478;2022-09-11T04:57:37;5.90;;;3.92;;
9934;SDS011;5006;41.828;23.478;2022-09-11T04:58:42;5.03;;;2.60;;
9934;SDS011;5006;41.828;23.478;2022-09-11T04:59:49;4.70;;;2.30;;
9934;SDS011;5006;41.828;23.478;2022-09-11T05:00:55;3.17;;;2.00;;
9934;SDS011;5006;41.828;23.478;2022-09-11T05:02:01;3.67;;;2.20;;
9934;SDS011;5006;41.828;23.478;2022-09-11T05:03:06;3.13;;;2.13;;
9934;SDS011;5006;41.828;23.478;2022-09-11T05:04:13;4.53;;;2.15;;
9934;SDS011;5006;41.828;23.478;2022-09-11T05:05:19;8.00;;;3.40;;
9934;SDS011;5006;41.828;23.478;2022-09-11T05:06:26;6.53;;;3.25;;
9934;SDS011;5006;41.828;23.478;2022-09-11T05:07:33;6.75;;;2.90;;
9934;SDS011;5006;41.828;23.478;2022-09-11T05:08:41;5.68;;;3.92;;
9934;SDS011;5006;41.828;23.478;2022-09-11T05:09:46;6.93;;;4.50;;
9934;SDS011;5006;41.828;23.478;2022-09-11T05:10:54;5.75;;;3.88;;
9934;SDS011;5006;41.828;23.478;2022-09-11T05:11:59;7.57;;;4.10;;
9934;SDS011;5006;41.828;23.478;2022-09-11T05:13:08;6.65;;;3.95;;
9934;SDS011;5006;41.828;23.478;2022-09-11T05:14:14;4.90;;;4.07;;
9934;SDS011;5006;41.828;23.478;2022-09-11T05:15:23;5.82;;;4.15;;
9934;SDS011;5006;41.828;23.478;2022-09-11T05:16:28;6.38;;;3.95;;
9934;SDS011;5006;41.828;23.478;2022-09-11T05:17:37;6.30;;;4.05;;
9934;SDS011;5006;41.828;23.478;2022-09-11T05:18:48;5.40;;;4.35;;
9934;SDS011;5006;41.828;23.478;2022-09-11T05:19:56;5.30;;;3.83;;
9934;SDS011;5006;41.828;23.478;2022-09-11T05:21:02;7.95;;;4.30;;
9934;SDS011;5006;41.828;23.478;2022-09-11T05:22:09;5.38;;;4.32;;
9934;SDS011;5006;41.828;23.478;2022-09-11T05:23:19;5.95;;;4.30;;
9934;SDS011;5006;41.828;23.478;2022-09-11T05:24:24;5.97;;;4.18;;
9934;SDS011;5006;41.828;23.478;2022-09-11T05:25:30;9.40;;;4.28;;
9934;SDS011;5006;41.828;23.478;2022-09-11T05:26:35;12.10;;;4.18;;
9934;SDS011;5006;41.828;23.478;2022-09-11T05:27:43;5.15;;;4.30;;
9934;SDS011;5006;41.828;23.478;2022-09-11T05:28:52;8.68;;;4.90;;
9934;SDS011;5006;41.828;23.478;2022-09-11T05:29:58;6.10;;;4.40;;
9934;SDS011;5006;41.828;23.478;2022-09-11T05:31:09;8.10;;;4.78;;
9934;SDS011;5006;41.828;23.478;2022-09-11T05:32:15;7.28;;;4.68;;
9934;SDS011;5006;41.828;23.478;2022-09-11T05:33:20;8.45;;;5.20;;
9934;SDS011;5006;41.828;23.478;2022-09-11T05:34:27;7.65;;;5.20;;
9934;SDS011;5006;41.828;23.478;2022-09-11T05:35:33;6.88;;;4.90;;
9934;SDS011;5006;41.828;23.478;2022-09-11T05:36:40;7.40;;;5.32;;
9934;SDS011;5006;41.828;23.478;2022-09-11T05:37:46;6.82;;;5.57;;
9934;SDS011;5006;41.828;23.478;2022-09-11T05:38:52;9.20;;;5.53;;
9934;SDS011;5006;41.828;23.478;2022-09-11T05:39:57;13.48;;;6.07;;
9934;SDS011;5006;41.828;23.478;2022-09-11T05:41:04;6.15;;;5.38;;
9934;SDS011;5006;41.828;23.478;2022-09-11T05:42:09;7.47;;;5.20;;
9934;SDS011;5006;41.828;23.478;2022-09-11T05:43:19;7.88;;;5.80;;
9934;SDS011;5006;41.828;23.478;2022-09-11T05:44:26;6.68;;;5.45;;
9934;SDS011;5006;41.828;23.478;2022-09-11T05:45:34;10.35;;;5.85;;
9934;SDS011;5006;41.828;23.478;2022-09-11T05:46:39;7.78;;;5.88;;
9934;SDS011;5006;41.828;23.478;2022-09-11T05:47:45;9.23;;;5.40;;
9934;SDS011;5006;41.828;23.478;2022-09-11T05:48:50;8.48;;;5.28;;
9934;SDS011;5006;41.828;23.478;2022-09-11T05:49:56;8.00;;;5.43;;
9934;SDS011;5006;41.828;23.478;2022-09-11T05:51:03;11.38;;;5.80;;
9934;SDS011;5006;41.828;23.478;2022-09-11T05:52:11;7.93;;;5.75;;
9934;SDS011;5006;41.828;23.478;2022-09-11T05:53:18;7.60;;;5.50;;
9934;SDS011;5006;41.828;23.478;2022-09-11T05:54:24;8.23;;;5.50;;
9934;SDS011;5006;41.828;23.478;2022-09-11T05:55:31;8.40;;;5.45;;
9934;SDS011;5006;41.828;23.478;2022-09-11T05:56:38;7.10;;;5.20;;
9934;SDS011;5006;41.828;23.478;2022-09-11T05:57:50;8.68;;;5.35;;
9934;SDS011;5006;41.828;23.478;2022-09-11T05:58:55;7.82;;;5.15;;
9934;SDS011;5006;41.828;23.478;2022-09-11T06:00:09;9.63;;;5.15;;
9934;SDS011;5006;41.828;23.478;2022-09-11T06:01:27;13.10;;;5.43;;
9934;SDS011;5006;41.828;23.478;2022-09-11T06:02:43;7.20;;;5.55;;
9934;SDS011;5006;41.828;23.478;2022-09-11T06:03:49;6.93;;;5.55;;
9934;SDS011;5006;41.828;23.478;2022-09-11T06:04:56;7.75;;;5.70;;
9934;SDS011;5006;41.828;23.478;2022-09-11T06:06:03;9.48;;;5.70;;
9934;SDS011;5006;41.828;23.478;2022-09-11T06:07:09;7.53;;;5.70;;
9934;SDS011;5006;41.828;23.478;2022-09-11T06:08:19;8.85;;;5.50;;
9934;SDS011;5006;41.828;23.478;2022-09-11T06:09:24;10.50;;;5.82;;
9934;SDS011;5006;41.828;23.478;2022-09-11T06:10:30;7.43;;;5.82;;
9934;SDS011;5006;41.828;23.478;2022-09-11T06:11:34;9.32;;;5.50;;
9934;SDS011;5006;41.828;23.478;2022-09-11T06:12:40;9.25;;;5.28;;
9934;SDS011;5006;41.828;23.478;2022-09-11T06:13:45;6.55;;;5.32;;
9934;SDS011;5006;41.828;23.478;2022-09-11T06:14:52;7.07;;;5.28;;
9934;SDS011;5006;41.828;23.478;2022-09-11T06:15:58;9.45;;;6.10;;
9934;SDS011;5006;41.828;23.478;2022-09-11T06:17:04;7.70;;;5.53;;
9934;SDS011;5006;41.828;23.478;2022-09-11T06:18:10;6.97;;;5.63;;
9934;SDS011;5006;41.828;23.478;2022-09-11T06:19:15;7.97;;;5.30;;
9934;SDS011;5006;41.828;23.478;2022-09-11T06:20:22;10.15;;;5.68;;
9934;SDS011;5006;41.828;23.478;2022-09-11T06:21:29;6.68;;;5.35;;
9934;SDS011;5006;41.828;23.478;2022-09-11T06:22:45;6.22;;;5.32;;
9934;SDS011;5006;41.828;23.478;2022-09-11T06:23:52;6.55;;;5.03;;
9934;SDS011;5006;41.828;23.478;2022-09-11T06:24:57;7.63;;;5.15;;
9934;SDS011;5006;41.828;23.478;2022-09-11T06:26:03;7.78;;;5.45;;
9934;SDS011;5006;41.828;23.478;2022-09-11T06:27:13;9.30;;;5.40;;
9934;SDS011;5006;41.828;23.478;2022-09-11T06:28:22;8.23;;;5.20;;
9934;SDS011;5006;41.828;23.478;2022-09-11T06:29:30;8.60;;;5.40;;
9934;SDS011;5006;41.828;23.478;2022-09-11T06:30:39;5.68;;;4.72;;
9934;SDS011;5006;41.828;23.478;2022-09-11T06:31:46;10.32;;;4.90;;
9934;SDS011;5006;41.828;23.478;2022-09-11T06:32:55;5.72;;;4.85;;
9934;SDS011;5006;41.828;23.478;2022-09-11T06:34:01;6.90;;;4.53;;
9934;SDS011;5006;41.828;23.478;2022-09-11T06:35:07;6.78;;;4.30;;
9934;SDS011;5006;41.828;23.478;2022-09-11T06:36:14;7.63;;;4.55;;
9934;SDS011;5006;41.828;23.478;2022-09-11T06:37:22;8.10;;;4.47;;
9934;SDS011;5006;41.828;23.478;2022-09-11T06:38:29;6.57;;;3.50;;
9934;SDS011;5006;41.828;23.478;2022-09-11T06:39:36;4.15;;;3.08;;
9934;SDS011;5006;41.828;23.478;2022-09-11T06:40:42;4.10;;;3.10;;
9934;SDS011;5006;41.828;23.478;2022-09-11T06:41:46;5.18;;;3.30;;
9934;SDS011;5006;41.828;23.478;2022-09-11T06:42:56;4.38;;;2.97;;
9934;SDS011;5006;41.828;23.478;2022-09-11T06:44:02;3.85;;;2.88;;
9934;SDS011;5006;41.828;23.478;2022-09-11T06:45:09;4.72;;;3.15;;
9934;SDS011;5006;41.828;23.478;2022-09-11T06:46:15;7.50;;;3.40;;
9934;SDS011;5006;41.828;23.478;2022-09-11T06:47:23;4.25;;;3.10;;
9934;SDS011;5006;41.828;23.478;2022-09-11T06:48:28;6.50;;;3.10;;
9934;SDS011;5006;41.828;23.478;2022-09-11T06:49:34;2.65;;;2.45;;
9934;SDS011;5006;41.828;23.478;2022-09-11T06:51:12;3.67;;;3.03;;
9934;SDS011;5006;41.828;23.478;2022-09-11T06:52:20;5.28;;;3.00;;
9934;SDS011;5006;41.828;23.478;2022-09-11T06:53:37;3.97;;;2.50;;
9934;SDS011;5006;41.828;23.478;2022-09-11T06:54:49;6.47;;;2.75;;
9934;SDS011;5006;41.828;23.478;2022-09-11T06:55:57;6.45;;;3.00;;
9934;SDS011;5006;41.828;23.478;2022-09-11T06:57:03;4.32;;;2.88;;
9934;SDS011;5006;41.828;23.478;2022-09-11T06:58:08;3.83;;;2.90;;
9934;SDS011;5006;41.828;23.478;2022-09-11T06:59:14;3.22;;;2.45;;